LFBE/EGC METAR and TAF weather

Enter ICAO airport designator
Station Type Date Time Source
LFBE METAR 2018/12/11 18:30 UTC NOAA

LFBE 111830Z AUTO 09002KT CAVOK 02/01 Q1021 NOSIG


Station Type Date Time Source
LFBE Decoded METAR 2018/12/11 18:30 UTC NOAA

Bergerac, France (LFBE) 44-49N 000-31E 52M
Dec 11, 2018 - 01:30 PM EST / 2018.12.11 1830 UTC
Wind: from the E (090 degrees) at 2 MPH (2 KT):0
Visibility: greater than 7 mile(s):0
Temperature: 35 F (2 C)
Dew Point: 33 F (1 C)
Relative Humidity: 93%
Pressure (altimeter): 30.15 in. Hg (1021 hPa)
ob: LFBE 111830Z AUTO 09002KT CAVOK 02/01 Q1021 NOSIG
cycle: 18

Station Type Date Time Source
LFBE TAF 2018/12/11 18:21 UTC NOAA

TAF LFBE 111700Z 1118/1218 10005KT CAVOK
BECMG 1205/1207 5000 -RA BKN030
TEMPO 1207/1209 2000 RA OVC010 PROB40
TEMPO 1210/1215 4000 -SHRA BKN025TCU


Example: see airport list